Veni Vi — LD9966 — position and weather

sailwx.info

Track history (hours):
 
Tides and Currents Weather Stations Pressure Air Temp Water Temp Dewpoint Dewpoint Depression Visibility Wind Speed Wind Dir Waves Ship Positions

Veni Vi

Last reported at 2016-Jun-12 11:08 UTC. Time now 2016-Jun-29 20:08 UTC.
Position N 59°47' E 005°20'.
Warning: this ship's position is 17 days out of date.

Length 13 m.

Type: Sailing vessel. MMSI: 257827490.

Date/timePositionNaut miles runAvg speedWind from/ knotsBaromVisibWave heightAir tempDewpointWater temp
2016-Jun-12 11:08N 59°47' E 005°20'2 2.9
2016-Jun-12 10:23N 59°45' E 005°22'1 0.8
2016-Jun-12 09:33N 59°45' E 005°22'2 2.3
2016-Jun-12 08:33N 59°44' E 005°27'3 2.9
2016-Jun-12 07:32N 59°47' E 005°30'0 0.0
2016-Jun-12 06:30N 59°47' E 005°30'0 0.0
2016-Jun-12 04:33N 59°47' E 005°30'0 0.0
2016-Jun-12 03:30N 59°47' E 005°30'0 0.0
2016-Jun-12 02:30N 59°47' E 005°30'0 0.0
2016-Jun-12 01:33N 59°47' E 005°30'0 0.0
2016-Jun-12 00:30N 59°47' E 005°30'0 0.0
2016-Jun-11 23:30N 59°47' E 005°30'0 0.0
2016-Jun-11 22:30N 59°47' E 005°30'0 0.0
2016-Jun-11 21:30N 59°47' E 005°30'0 0.0
2016-Jun-11 20:30N 59°47' E 005°30'0 0.0
2016-Jun-11 19:30N 59°47' E 005°30'0 0.0
2016-Jun-11 18:30N 59°47' E 005°30'0 0.0
2016-Jun-11 17:33N 59°47' E 005°30'0 0.0
2016-Jun-11 16:33N 59°47' E 005°30'0 0.0
2016-Jun-11 15:33N 59°47' E 005°30'0 0.0
2016-Jun-11 14:30N 59°47' E 005°30'0 0.0
2016-Jun-11 13:33N 59°47' E 005°30'0 0.0
2016-Jun-11 12:30N 59°47' E 005°30'0 0.0
2016-Jun-11 11:33N 59°47' E 005°30'0 0.0
2016-Jun-11 09:32N 59°47' E 005°30'0 0.0
2016-Jun-11 07:30N 59°47' E 005°30'3 3.1
2016-Jun-11 06:33N 59°44' E 005°27'  
2016-Jun-02 20:24N 60°16' E 005°15'2 2.2
2016-Jun-02 19:31N 60°14' E 005°14'2 1.6
2016-Jun-02 18:30N 60°16' E 005°14'0 0.4
2016-Jun-02 17:33N 60°16' E 005°13'1 0.6
2016-Jun-02 16:28N 60°15' E 005°14'1 0.6
2016-Jun-02 15:31N 60°15' E 005°14'0 0.0
2016-Jun-02 14:31N 60°15' E 005°15'0 0.4
2016-Jun-02 13:25N 60°15' E 005°14'2 2.2
2016-Jun-02 12:33N 60°13' E 005°14'2 1.7
2016-Jun-02 11:33N 60°15' E 005°14'  
Track history (hours):
 
Tides and Currents Weather Stations Pressure Air Temp Water Temp Dewpoint Dewpoint Depression Visibility Wind Speed Wind Dir Waves Ship Positions

Veni Vi

Last reported at 2016-Jun-12 11:08 UTC. Time now 2016-Jun-29 20:08 UTC.
Position N 59°47' E 005°20'.
Warning: this ship's position is 17 days out of date.

Length 13 m.

Type: Sailing vessel. MMSI: 257827490.

Date/timePositionNaut miles runAvg speedWind from/ knotsBaromVisibWave heightAir tempDewpointWater temp
2016-Jun-12 11:08N 59°47' E 005°20'2 2.9
2016-Jun-12 10:23N 59°45' E 005°22'1 0.8
2016-Jun-12 09:33N 59°45' E 005°22'2 2.3
2016-Jun-12 08:33N 59°44' E 005°27'3 2.9
2016-Jun-12 07:32N 59°47' E 005°30'0 0.0
2016-Jun-12 06:30N 59°47' E 005°30'0 0.0
2016-Jun-12 04:33N 59°47' E 005°30'0 0.0
2016-Jun-12 03:30N 59°47' E 005°30'0 0.0
2016-Jun-12 02:30N 59°47' E 005°30'0 0.0
2016-Jun-12 01:33N 59°47' E 005°30'0 0.0
2016-Jun-12 00:30N 59°47' E 005°30'0 0.0
2016-Jun-11 23:30N 59°47' E 005°30'0 0.0
2016-Jun-11 22:30N 59°47' E 005°30'0 0.0
2016-Jun-11 21:30N 59°47' E 005°30'0 0.0
2016-Jun-11 20:30N 59°47' E 005°30'0 0.0
2016-Jun-11 19:30N 59°47' E 005°30'0 0.0
2016-Jun-11 18:30N 59°47' E 005°30'0 0.0
2016-Jun-11 17:33N 59°47' E 005°30'0 0.0
2016-Jun-11 16:33N 59°47' E 005°30'0 0.0
2016-Jun-11 15:33N 59°47' E 005°30'0 0.0
2016-Jun-11 14:30N 59°47' E 005°30'0 0.0
2016-Jun-11 13:33N 59°47' E 005°30'0 0.0
2016-Jun-11 12:30N 59°47' E 005°30'0 0.0
2016-Jun-11 11:33N 59°47' E 005°30'0 0.0
2016-Jun-11 09:32N 59°47' E 005°30'0 0.0
2016-Jun-11 07:30N 59°47' E 005°30'3 3.1
2016-Jun-11 06:33N 59°44' E 005°27'  
2016-Jun-02 20:24N 60°16' E 005°15'2 2.2
2016-Jun-02 19:31N 60°14' E 005°14'2 1.6
2016-Jun-02 18:30N 60°16' E 005°14'0 0.4
2016-Jun-02 17:33N 60°16' E 005°13'1 0.6
2016-Jun-02 16:28N 60°15' E 005°14'1 0.6
2016-Jun-02 15:31N 60°15' E 005°14'0 0.0
2016-Jun-02 14:31N 60°15' E 005°15'0 0.4
2016-Jun-02 13:25N 60°15' E 005°14'2 2.2
2016-Jun-02 12:33N 60°13' E 005°14'2 1.7
2016-Jun-02 11:33N 60°15' E 005°14'  

Dump ship's entire track history